Time;durP1;ratioP1;P1;durP2;ratioP2;P2;SDS_P1;SDS_P2;PMS_P1;PMS_P2;Temp;Humidity;BMP_temperature;BMP_pressure;BME280_temperature;BME280_humidity;BME280_pressure;Samples;Min_cycle;Max_cycle;Signal;HPM_P1;HPM_P2
2021/07/02 00:02:17;;;;;;;;;;;23.00;99.90;;;;;;5084633;28;19934;-72
2021/07/02 00:04:43;;;;;;;;;;;23.00;99.90;;;;;;5089163;28;19965;-74
2021/07/02 00:07:08;;;;;;;;;;;22.90;99.90;;;;;;5088686;28;19916;-74
2021/07/02 00:09:34;;;;;;;;;;;22.80;99.90;;;;;;5077426;28;19923;-72
2021/07/02 00:12:00;;;;;;;;;;;22.80;99.90;;;;;;5083887;28;19908;-72
2021/07/02 00:14:25;;;;;;;;;;;22.80;99.90;;;;;;5088930;28;19912;-74
2021/07/02 00:16:51;;;;;;;;;;;22.80;99.90;;;;;;5092135;28;19919;-73
2021/07/02 00:19:16;;;;;;;;;;;22.80;99.90;;;;;;5089826;28;19912;-72
2021/07/02 00:21:42;;;;;;;;;;;22.80;99.90;;;;;;5085797;28;19912;-73
2021/07/02 00:24:08;;;;;;;;;;;22.70;99.90;;;;;;5089691;28;19920;-74
2021/07/02 00:26:35;;;;;;;;;;;22.60;99.90;;;;;;5086761;28;19918;-77
2021/07/02 00:29:02;;;;;;;;;;;22.70;99.90;;;;;;5080074;28;20215;-72
2021/07/02 00:31:27;;;;;;;;;;;22.60;99.90;;;;;;5091897;28;19931;-76
2021/07/02 00:33:53;;;;;;;;;;;22.60;99.90;;;;;;5087559;28;20594;-73
2021/07/02 00:36:19;;;;;;;;;;;22.60;99.90;;;;;;5092063;28;19913;-73
2021/07/02 00:38:44;;;;;;;;;;;22.50;99.90;;;;;;5087417;28;19916;-75
2021/07/02 00:41:10;;;;;;;;;;;22.50;99.90;;;;;;5086196;28;19984;-75
2021/07/02 00:43:37;;;;;;;;;;;22.50;99.90;;;;;;5084811;28;19919;-73
2021/07/02 00:46:03;;;;;;;;;;;22.50;99.90;;;;;;5090451;28;19912;-73
2021/07/02 00:48:29;;;;;;;;;;;22.50;99.90;;;;;;5087499;28;21152;-75
2021/07/02 00:50:54;;;;;;;;;;;22.50;99.90;;;;;;5082798;28;19916;-75
2021/07/02 00:53:22;;;;;;;;;;;22.50;99.90;;;;;;5075293;28;19918;-73
2021/07/02 00:55:48;;;;;;;;;;;22.60;99.90;;;;;;5084792;28;20263;-74
2021/07/02 00:58:14;;;;;;;;;;;22.50;99.90;;;;;;5090482;28;19914;-73
2021/07/02 01:00:39;;;;;;;;;;;22.50;99.90;;;;;;5085449;28;19917;-76
2021/07/02 01:03:05;;;;;;;;;;;22.60;99.90;;;;;;5088440;28;19943;-72
2021/07/02 01:05:30;;;;;;;;;;;22.50;99.90;;;;;;5085873;28;20355;-74
2021/07/02 01:07:56;;;;;;;;;;;22.50;99.90;;;;;;5090446;28;19908;-73
2021/07/02 01:10:22;;;;;;;;;;;22.50;99.90;;;;;;5090864;28;19908;-77
2021/07/02 01:12:47;;;;;;;;;;;22.60;99.90;;;;;;5088948;28;19912;-72
2021/07/02 01:15:20;;;;;;;;;;;22.60;99.90;;;;;;5084076;28;19995;-73
2021/07/02 01:17:46;;;;;;;;;;;22.60;99.90;;;;;;5090294;28;19919;-72
2021/07/02 01:20:11;;;;;;;;;;;22.70;99.90;;;;;;5090945;28;20259;-73
2021/07/02 01:22:38;;;;;;;;;;;22.70;99.90;;;;;;5089843;28;19912;-76
2021/07/02 01:25:04;;;;;;;;;;;22.80;99.90;;;;;;5087331;28;19926;-73
2021/07/02 01:27:29;;;;;;;;;;;22.80;99.90;;;;;;5084656;28;20006;-76
2021/07/02 01:29:55;;;;;;;;;;;22.80;99.90;;;;;;5088559;28;19980;-73
2021/07/02 01:32:21;;;;;;;;;;;22.80;99.90;;;;;;5089161;28;19912;-72
2021/07/02 01:34:46;;;;;;;;;;;22.70;99.90;;;;;;5077797;28;19935;-75
2021/07/02 01:37:12;;;;;;;;;;;22.70;99.90;;;;;;5085703;28;20384;-73
2021/07/02 01:39:38;;;;;;;;;;;22.80;99.90;;;;;;5077062;28;19924;-76
2021/07/02 01:42:05;;;;;;;;;;;22.80;99.90;;;;;;5075743;28;19913;-72
2021/07/02 01:44:30;;;;;;;;;;;22.80;99.90;;;;;;5087197;28;19920;-72
2021/07/02 01:46:56;;;;;;;;;;;22.80;99.90;;;;;;5090839;28;19908;-73
2021/07/02 01:49:22;;;;;;;;;;;22.70;99.90;;;;;;5088255;28;19958;-72
2021/07/02 01:51:47;;;;;;;;;;;22.60;99.90;;;;;;5089616;28;19916;-73
2021/07/02 01:54:13;;;;;;;;;;;22.60;99.90;;;;;;5088109;28;20011;-73
2021/07/02 01:56:38;;;;;;;;;;;22.60;99.90;;;;;;5084877;28;19951;-75
2021/07/02 01:59:04;;;;;;;;;;;22.70;99.90;;;;;;5086993;28;19981;-72
2021/07/02 02:01:29;;;;;;;;;;;22.70;99.90;;;;;;5089204;28;19919;-72
2021/07/02 02:03:55;;;;;;;;;;;22.70;99.90;;;;;;5085832;28;19908;-73
2021/07/02 02:06:20;;;;;;;;;;;22.60;99.90;;;;;;5089674;28;19951;-75
2021/07/02 02:08:46;;;;;;;;;;;22.60;99.90;;;;;;5085215;28;19921;-75
2021/07/02 02:11:11;;;;;;;;;;;22.70;99.90;;;;;;5088385;28;19916;-73
2021/07/02 02:13:37;;;;;;;;;;;22.60;99.90;;;;;;5088960;28;19916;-76
2021/07/02 02:16:04;;;;;;;;;;;22.60;99.90;;;;;;5090467;28;19912;-74
2021/07/02 02:18:29;;;;;;;;;;;22.60;99.90;;;;;;5086964;28;19931;-73
2021/07/02 02:20:55;;;;;;;;;;;22.50;99.90;;;;;;5090212;28;19912;-73
2021/07/02 02:23:20;;;;;;;;;;;22.50;99.90;;;;;;5086180;28;19938;-72
2021/07/02 02:25:46;;;;;;;;;;;22.50;99.90;;;;;;5080724;28;19991;-73
2021/07/02 02:28:12;;;;;;;;;;;22.50;99.90;;;;;;5088328;28;20395;-72
2021/07/02 02:30:37;;;;;;;;;;;22.40;99.90;;;;;;5088254;28;19923;-74
2021/07/02 02:33:05;;;;;;;;;;;22.50;99.90;;;;;;5088283;28;19918;-73
2021/07/02 02:35:31;;;;;;;;;;;22.40;99.90;;;;;;5089424;28;19914;-72
2021/07/02 02:37:56;;;;;;;;;;;22.40;99.90;;;;;;5086211;28;19920;-75
2021/07/02 02:40:22;;;;;;;;;;;22.40;99.90;;;;;;5088097;28;19916;-73
2021/07/02 02:42:48;;;;;;;;;;;22.40;99.90;;;;;;5085836;28;19912;-74
2021/07/02 02:45:13;;;;;;;;;;;22.40;99.90;;;;;;5084634;28;19957;-73
2021/07/02 02:47:39;;;;;;;;;;;22.40;99.90;;;;;;5090257;28;19908;-75
2021/07/02 02:50:05;;;;;;;;;;;22.30;99.90;;;;;;5089058;28;19961;-74
2021/07/02 02:52:30;;;;;;;;;;;22.40;99.90;;;;;;5076754;28;19920;-73
2021/07/02 02:54:56;;;;;;;;;;;22.40;99.90;;;;;;5084285;28;19923;-75
2021/07/02 02:57:22;;;;;;;;;;;22.40;99.90;;;;;;5091328;28;20027;-73
2021/07/02 02:59:47;;;;;;;;;;;22.40;99.90;;;;;;5093278;28;19916;-73
2021/07/02 03:02:13;;;;;;;;;;;22.40;99.90;;;;;;5091722;28;19963;-74
2021/07/02 03:04:39;;;;;;;;;;;22.30;99.90;;;;;;5086020;28;19919;-73
2021/07/02 03:07:05;;;;;;;;;;;22.30;99.90;;;;;;5081461;28;19916;-75
2021/07/02 03:09:31;;;;;;;;;;;22.20;99.90;;;;;;5091286;28;20349;-73
2021/07/02 03:11:56;;;;;;;;;;;22.20;99.90;;;;;;5093917;28;19979;-74
2021/07/02 03:14:22;;;;;;;;;;;22.10;99.90;;;;;;5090023;28;19995;-74
2021/07/02 03:16:48;;;;;;;;;;;22.10;99.90;;;;;;5088057;28;19912;-73
2021/07/02 03:19:14;;;;;;;;;;;22.10;99.90;;;;;;5090314;28;19912;-73
2021/07/02 03:21:39;;;;;;;;;;;22.10;99.90;;;;;;5093311;28;19909;-74
2021/07/02 03:24:05;;;;;;;;;;;22.10;99.90;;;;;;5092582;28;20331;-77
2021/07/02 03:26:31;;;;;;;;;;;22.20;99.90;;;;;;5092311;28;19994;-72
2021/07/02 03:28:56;;;;;;;;;;;22.30;99.90;;;;;;5083277;28;20524;-72
2021/07/02 03:31:22;;;;;;;;;;;22.20;99.90;;;;;;5088749;28;19966;-72
2021/07/02 03:33:47;;;;;;;;;;;22.20;99.90;;;;;;5089593;28;19935;-75
2021/07/02 03:36:13;;;;;;;;;;;22.20;99.90;;;;;;5086957;28;19912;-73
2021/07/02 03:38:38;;;;;;;;;;;22.20;99.90;;;;;;5087980;28;19912;-73
2021/07/02 03:41:04;;;;;;;;;;;22.20;99.90;;;;;;5090176;28;20011;-74
2021/07/02 03:43:29;;;;;;;;;;;22.30;99.90;;;;;;5088609;28;19919;-73
2021/07/02 03:45:55;;;;;;;;;;;22.40;99.90;;;;;;5087383;28;20061;-74
2021/07/02 03:48:20;;;;;;;;;;;22.50;99.90;;;;;;5087344;28;20003;-72
2021/07/02 03:50:46;;;;;;;;;;;22.50;99.90;;;;;;5083812;28;19935;-75
2021/07/02 03:53:12;;;;;;;;;;;22.40;99.90;;;;;;5083958;28;19917;-75
2021/07/02 03:55:37;;;;;;;;;;;22.50;99.90;;;;;;5087650;28;19920;-73
2021/07/02 03:58:03;;;;;;;;;;;22.50;99.90;;;;;;5088470;28;19987;-73
2021/07/02 04:00:30;;;;;;;;;;;22.40;99.90;;;;;;5088192;28;20618;-73
2021/07/02 04:02:56;;;;;;;;;;;22.40;99.90;;;;;;5088761;28;19919;-74
2021/07/02 04:05:21;;;;;;;;;;;22.30;99.90;;;;;;5081325;28;19971;-74
2021/07/02 04:07:47;;;;;;;;;;;22.40;99.90;;;;;;5089530;28;20400;-74
2021/07/02 04:10:13;;;;;;;;;;;22.40;99.90;;;;;;5091190;28;19908;-74
2021/07/02 04:12:38;;;;;;;;;;;22.40;99.90;;;;;;5091524;28;19958;-74
2021/07/02 04:15:05;;;;;;;;;;;22.40;99.90;;;;;;5088017;28;19935;-74
2021/07/02 04:17:31;;;;;;;;;;;22.50;99.90;;;;;;5084129;28;19920;-74
2021/07/02 04:19:56;;;;;;;;;;;22.50;99.90;;;;;;5088717;28;20319;-74
2021/07/02 04:22:22;;;;;;;;;;;22.60;99.90;;;;;;5091965;28;19977;-74
2021/07/02 04:24:48;;;;;;;;;;;22.50;99.90;;;;;;5088671;28;19908;-74
2021/07/02 04:27:14;;;;;;;;;;;22.50;99.90;;;;;;5087892;28;19965;-74
2021/07/02 04:29:39;;;;;;;;;;;22.40;99.90;;;;;;5087545;28;19912;-73
2021/07/02 04:32:05;;;;;;;;;;;22.40;99.90;;;;;;5086003;28;20358;-74
2021/07/02 04:34:31;;;;;;;;;;;22.40;99.90;;;;;;5088249;28;20006;-74
2021/07/02 04:36:56;;;;;;;;;;;22.50;99.90;;;;;;5087072;28;19913;-73
2021/07/02 04:39:22;;;;;;;;;;;22.50;99.90;;;;;;5088258;28;19923;-73
2021/07/02 04:41:48;;;;;;;;;;;22.50;99.90;;;;;;5086032;28;19919;-74
2021/07/02 04:44:14;;;;;;;;;;;22.50;99.90;;;;;;5081646;28;19912;-74
2021/07/02 04:46:39;;;;;;;;;;;22.50;99.90;;;;;;5084885;28;20385;-74
2021/07/02 04:49:05;;;;;;;;;;;22.50;99.90;;;;;;5086924;28;19956;-75
2021/07/02 04:51:30;;;;;;;;;;;22.50;99.90;;;;;;5085524;28;19919;-75
2021/07/02 04:53:56;;;;;;;;;;;22.40;99.90;;;;;;5085027;28;19912;-74
2021/07/02 04:56:22;;;;;;;;;;;22.20;99.90;;;;;;5084897;28;19912;-76
2021/07/02 04:58:54;;;;;;;;;;;22.00;99.90;;;;;;5091016;28;20286;-74
2021/07/02 05:01:21;;;;;;;;;;;22.00;99.90;;;;;;5082775;28;20303;-74
2021/07/02 05:03:47;;;;;;;;;;;22.10;99.90;;;;;;5084668;28;19916;-73
2021/07/02 05:06:12;;;;;;;;;;;22.10;99.90;;;;;;5086287;28;19928;-75
2021/07/02 05:08:38;;;;;;;;;;;22.10;99.90;;;;;;5088669;28;19912;-75
2021/07/02 05:11:04;;;;;;;;;;;22.10;99.90;;;;;;5091238;28;19974;-75
2021/07/02 05:13:31;;;;;;;;;;;22.00;99.90;;;;;;5089655;28;19955;-75
2021/07/02 05:15:56;;;;;;;;;;;22.00;99.90;;;;;;5088762;28;19995;-75
2021/07/02 05:18:22;;;;;;;;;;;22.00;99.90;;;;;;5088007;28;19955;-74
2021/07/02 05:20:47;;;;;;;;;;;22.00;99.90;;;;;;5089649;28;19934;-74
2021/07/02 05:23:13;;;;;;;;;;;22.00;99.90;;;;;;5087948;28;20014;-74
2021/07/02 05:25:39;;;;;;;;;;;22.00;99.90;;;;;;5087524;28;19927;-74
2021/07/02 05:28:05;;;;;;;;;;;22.00;99.90;;;;;;5084697;28;19916;-76
2021/07/02 05:30:30;;;;;;;;;;;22.10;99.90;;;;;;5087091;28;19965;-75
2021/07/02 05:32:56;;;;;;;;;;;22.00;99.90;;;;;;5078187;28;19913;-75
2021/07/02 05:35:22;;;;;;;;;;;22.00;99.90;;;;;;5082297;28;19935;-75
2021/07/02 05:37:47;;;;;;;;;;;22.00;99.90;;;;;;5077098;28;19912;-74
2021/07/02 05:40:14;;;;;;;;;;;22.00;99.90;;;;;;5077276;28;20423;-73
2021/07/02 05:42:40;;;;;;;;;;;22.10;99.90;;;;;;5086487;28;19955;-71
2021/07/02 05:45:06;;;;;;;;;;;22.00;99.90;;;;;;5080626;28;20421;-69
2021/07/02 05:47:36;;;;;;;;;;;22.00;99.90;;;;;;5088769;28;19920;-70
2021/07/02 05:50:02;;;;;;;;;;;22.10;99.90;;;;;;5090189;28;19908;-69
2021/07/02 05:52:28;;;;;;;;;;;22.20;99.90;;;;;;5089800;28;20536;-70
2021/07/02 05:54:53;;;;;;;;;;;22.20;99.90;;;;;;5087312;28;19916;-68
2021/07/02 05:57:19;;;;;;;;;;;22.10;99.90;;;;;;5089830;28;20006;-70
2021/07/02 05:59:45;;;;;;;;;;;22.00;99.90;;;;;;5086322;28;19916;-69
2021/07/02 06:02:10;;;;;;;;;;;22.00;99.90;;;;;;5086931;28;19920;-69
2021/07/02 06:04:36;;;;;;;;;;;21.90;99.90;;;;;;5089126;28;19919;-71
2021/07/02 06:07:01;;;;;;;;;;;21.80;99.90;;;;;;5085101;28;20393;-69
2021/07/02 06:09:29;;;;;;;;;;;21.80;99.90;;;;;;5085829;28;19913;-70
2021/07/02 06:11:54;;;;;;;;;;;21.80;99.90;;;;;;5087948;28;20337;-70
2021/07/02 06:14:20;;;;;;;;;;;21.70;99.90;;;;;;5091409;28;20004;-69
2021/07/02 06:16:45;;;;;;;;;;;21.80;99.90;;;;;;5085191;28;19922;-70
2021/07/02 06:19:11;;;;;;;;;;;21.80;99.90;;;;;;5088077;28;19961;-69
2021/07/02 06:21:37;;;;;;;;;;;21.70;99.90;;;;;;5086658;28;20301;-69
2021/07/02 06:24:03;;;;;;;;;;;21.70;99.90;;;;;;5089029;28;19912;-68
2021/07/02 06:26:29;;;;;;;;;;;21.60;99.90;;;;;;5089455;28;19912;-69
2021/07/02 06:28:54;;;;;;;;;;;21.60;99.90;;;;;;5090509;28;19995;-69
2021/07/02 06:31:20;;;;;;;;;;;21.80;99.90;;;;;;5093425;28;19965;-71
2021/07/02 06:33:46;;;;;;;;;;;21.90;99.90;;;;;;5091645;28;19916;-68
2021/07/02 06:36:12;;;;;;;;;;;21.90;99.90;;;;;;5086886;28;19989;-68
2021/07/02 06:38:38;;;;;;;;;;;22.00;99.90;;;;;;5091365;28;20373;-69
2021/07/02 06:41:03;;;;;;;;;;;22.10;99.90;;;;;;5083296;28;19916;-69
2021/07/02 06:43:31;;;;;;;;;;;22.00;99.90;;;;;;5089653;28;20398;-68
2021/07/02 06:45:56;;;;;;;;;;;22.00;99.90;;;;;;5087285;28;19912;-68
2021/07/02 06:48:22;;;;;;;;;;;22.00;99.90;;;;;;5088938;28;19919;-69
2021/07/02 06:50:48;;;;;;;;;;;22.00;99.90;;;;;;5092580;28;20400;-68
2021/07/02 06:53:15;;;;;;;;;;;22.10;99.90;;;;;;5089497;28;20394;-69
2021/07/02 06:55:40;;;;;;;;;;;22.10;99.90;;;;;;5092210;28;20019;-69
2021/07/02 06:58:09;;;;;;;;;;;22.10;99.90;;;;;;5093289;28;20439;-69
2021/07/02 07:00:35;;;;;;;;;;;22.20;99.90;;;;;;5081213;28;19959;-69
2021/07/02 07:03:00;;;;;;;;;;;22.20;99.90;;;;;;5091737;28;20389;-69
2021/07/02 07:05:26;;;;;;;;;;;22.30;99.90;;;;;;5090512;28;19939;-70
2021/07/02 07:07:51;;;;;;;;;;;22.50;99.90;;;;;;5089470;28;20370;-68
2021/07/02 07:10:17;;;;;;;;;;;22.50;99.90;;;;;;5090149;28;19931;-69
2021/07/02 07:12:43;;;;;;;;;;;22.40;99.90;;;;;;5087544;28;19919;-70
2021/07/02 07:15:09;;;;;;;;;;;22.40;99.90;;;;;;5088720;28;19999;-69
2021/07/02 07:17:35;;;;;;;;;;;22.50;99.90;;;;;;5089498;28;20345;-69
2021/07/02 07:20:00;;;;;;;;;;;22.60;99.90;;;;;;5088219;28;19920;-69
2021/07/02 07:22:26;;;;;;;;;;;22.70;99.90;;;;;;5092065;28;19958;-71
2021/07/02 07:24:51;;;;;;;;;;;22.60;99.90;;;;;;5088712;28;20416;-69
2021/07/02 07:27:17;;;;;;;;;;;22.70;99.90;;;;;;5083552;28;19935;-71
2021/07/02 07:29:42;;;;;;;;;;;22.80;99.90;;;;;;5089754;28;19918;-69
2021/07/02 07:32:08;;;;;;;;;;;22.70;99.90;;;;;;5081791;28;19955;-69
2021/07/02 07:37:07;;;;;;;;;;;22.90;99.90;;;;;;5089887;28;20433;-69
2021/07/02 07:39:33;;;;;;;;;;;23.00;99.90;;;;;;5089587;28;20006;-69
2021/07/02 07:41:58;;;;;;;;;;;23.20;99.90;;;;;;5084907;28;20354;-70
2021/07/02 07:44:24;;;;;;;;;;;23.60;99.90;;;;;;5091005;28;20313;-70
2021/07/02 07:46:49;;;;;;;;;;;23.70;99.90;;;;;;5092802;28;20362;-71
2021/07/02 07:49:15;;;;;;;;;;;23.80;99.90;;;;;;5087597;28;20301;-71
2021/07/02 07:52:10;;;;;;;;;;;23.80;99.90;;;;;;5092497;28;19912;-70
2021/07/02 07:54:29;;;;;;;;;;;23.90;99.90;;;;;;5090198;28;19920;-71
2021/07/02 07:56:55;;;;;;;;;;;24.00;99.90;;;;;;5088290;28;19962;-70
2021/07/02 07:59:21;;;;;;;;;;;23.90;99.90;;;;;;5086851;28;19916;-70
2021/07/02 08:01:47;;;;;;;;;;;23.80;99.90;;;;;;5085202;28;19919;-70
2021/07/02 08:04:14;;;;;;;;;;;23.90;99.90;;;;;;5092382;28;19908;-70
2021/07/02 08:06:43;;;;;;;;;;;23.90;99.90;;;;;;5082569;28;19913;-69
2021/07/02 08:09:10;;;;;;;;;;;23.70;99.90;;;;;;5089742;28;19955;-69
2021/07/02 08:11:35;;;;;;;;;;;23.50;99.90;;;;;;5092513;28;20306;-71
2021/07/02 08:14:01;;;;;;;;;;;23.30;99.90;;;;;;5089556;28;19958;-70
2021/07/02 08:16:27;;;;;;;;;;;23.40;99.90;;;;;;5088696;28;19912;-70
2021/07/02 08:18:53;;;;;;;;;;;23.50;99.90;;;;;;5090445;28;19912;-70
2021/07/02 08:21:18;;;;;;;;;;;23.60;99.90;;;;;;5091786;28;19912;-70
2021/07/02 08:23:44;;;;;;;;;;;23.80;99.90;;;;;;5089079;28;19916;-70
2021/07/02 08:26:11;;;;;;;;;;;23.80;99.90;;;;;;5090916;28;20378;-70
2021/07/02 08:31:21;;;;;;;;;;;23.70;99.90;;;;;;5094955;28;20000;-70
2021/07/02 08:33:46;;;;;;;;;;;23.70;99.90;;;;;;5087861;28;19912;-70
2021/07/02 08:36:12;;;;;;;;;;;23.70;99.90;;;;;;5092476;28;19915;-69
2021/07/02 08:38:38;;;;;;;;;;;24.00;99.90;;;;;;5089902;28;19912;-70
2021/07/02 08:41:04;;;;;;;;;;;24.00;99.90;;;;;;5091209;28;20270;-70
2021/07/02 08:43:29;;;;;;;;;;;24.00;99.90;;;;;;5091062;28;19924;-69
2021/07/02 08:45:56;;;;;;;;;;;24.10;99.90;;;;;;5090957;28;19940;-70
2021/07/02 08:48:22;;;;;;;;;;;24.30;99.90;;;;;;5087520;28;20386;-69
2021/07/02 08:50:52;;;;;;;;;;;24.50;99.90;;;;;;5091201;28;19958;-69
2021/07/02 08:53:17;;;;;;;;;;;24.60;99.90;;;;;;5087857;28;19951;-69
2021/07/02 08:55:43;;;;;;;;;;;24.90;99.90;;;;;;5086294;28;20401;-69
2021/07/02 08:58:13;;;;;;;;;;;25.20;99.90;;;;;;5088779;28;19916;-72
2021/07/02 09:00:39;;;;;;;;;;;25.20;99.90;;;;;;5084730;28;19931;-71
2021/07/02 09:03:23;;;;;;;;;;;25.30;99.90;;;;;;5083604;28;19916;-65
2021/07/02 09:05:49;;;;;;;;;;;25.30;99.90;;;;;;5084898;28;19912;-65
2021/07/02 09:08:15;;;;;;;;;;;25.20;99.90;;;;;;5082991;28;20416;-65
2021/07/02 09:10:41;;;;;;;;;;;25.10;99.90;;;;;;5074717;28;19912;-65
2021/07/02 09:13:07;;;;;;;;;;;25.00;99.90;;;;;;5077771;28;19973;-66
2021/07/02 09:15:40;;;;;;;;;;;25.00;99.90;;;;;;5090980;28;20318;-66
2021/07/02 09:18:05;;;;;;;;;;;25.00;99.90;;;;;;5088434;28;20259;-66
2021/07/02 09:20:36;;;;;;;;;;;25.20;99.90;;;;;;5089852;28;20022;-66
2021/07/02 09:23:05;;;;;;;;;;;25.40;99.90;;;;;;5088936;28;20197;-67
2021/07/02 09:25:31;;;;;;;;;;;25.40;99.90;;;;;;5088529;28;19965;-66
2021/07/02 09:27:58;;;;;;;;;;;25.60;99.90;;;;;;5084995;28;19919;-67
2021/07/02 09:30:26;;;;;;;;;;;25.80;99.90;;;;;;5086333;28;19936;-65
2021/07/02 09:32:52;;;;;;;;;;;25.90;99.90;;;;;;5091240;28;19991;-65
2021/07/02 09:35:19;;;;;;;;;;;25.80;99.90;;;;;;5090411;28;20353;-67
2021/07/02 09:37:49;;;;;;;;;;;25.80;99.90;;;;;;5085123;28;19961;-65
2021/07/02 09:40:21;;;;;;;;;;;26.00;99.90;;;;;;5086059;28;20002;-66
2021/07/02 09:42:48;;;;;;;;;;;26.00;99.90;;;;;;5084188;28;19912;-66
2021/07/02 09:45:17;;;;;;;;;;;25.90;99.90;;;;;;5091385;28;19916;-68
2021/07/02 09:47:44;;;;;;;;;;;25.90;99.90;;;;;;5087558;28;19920;-65
2021/07/02 09:50:20;;;;;;;;;;;26.10;99.90;;;;;;5088281;28;20280;-66
2021/07/02 09:52:47;;;;;;;;;;;26.20;99.90;;;;;;5076006;28;19927;-63
2021/07/02 09:55:14;;;;;;;;;;;26.40;99.90;;;;;;5083981;28;20275;-64
2021/07/02 09:57:39;;;;;;;;;;;26.60;99.90;;;;;;5085602;28;19919;-65
2021/07/02 10:00:06;;;;;;;;;;;26.70;99.90;;;;;;5088477;28;19916;-66
2021/07/02 10:02:32;;;;;;;;;;;26.70;99.90;;;;;;5087285;28;20310;-65
2021/07/02 10:04:58;;;;;;;;;;;26.80;99.90;;;;;;5090271;28;19919;-66
2021/07/02 10:07:25;;;;;;;;;;;27.00;99.90;;;;;;5093359;28;19912;-64
2021/07/02 10:09:50;;;;;;;;;;;27.10;99.90;;;;;;5093874;28;19916;-65
2021/07/02 10:12:18;;;;;;;;;;;27.10;99.90;;;;;;5090195;28;19919;-66
2021/07/02 10:14:44;;;;;;;;;;;27.30;99.90;;;;;;5093897;28;19947;-67
2021/07/02 10:17:10;;;;;;;;;;;27.50;99.90;;;;;;5092360;28;19974;-64
2021/07/02 10:19:36;;;;;;;;;;;27.80;99.90;;;;;;5086742;28;19920;-65
2021/07/02 10:22:02;;;;;;;;;;;28.10;99.90;;;;;;5091972;28;20294;-65
2021/07/02 10:24:28;;;;;;;;;;;28.00;99.90;;;;;;5091848;28;19926;-65
2021/07/02 10:26:54;;;;;;;;;;;27.80;99.90;;;;;;5086354;28;19915;-65
2021/07/02 10:29:19;;;;;;;;;;;27.90;99.90;;;;;;5084982;28;19919;-64
2021/07/02 10:31:45;;;;;;;;;;;27.90;99.90;;;;;;5087310;28;19911;-64
2021/07/02 10:34:11;;;;;;;;;;;27.80;99.90;;;;;;5092353;28;19919;-65
2021/07/02 10:36:38;;;;;;;;;;;27.90;99.90;;;;;;5094471;28;19939;-66
2021/07/02 10:39:04;;;;;;;;;;;27.80;99.90;;;;;;5088600;28;20297;-65
2021/07/02 10:41:32;;;;;;;;;;;27.40;99.90;;;;;;5092397;28;19924;-65
2021/07/02 10:44:03;;;;;;;;;;;27.10;99.90;;;;;;5088684;28;19919;-66
2021/07/02 10:46:29;;;;;;;;;;;27.10;99.90;;;;;;5093262;28;19919;-66
2021/07/02 10:48:58;;;;;;;;;;;27.30;99.90;;;;;;5087546;28;19916;-65
2021/07/02 10:51:36;;;;;;;;;;;27.50;99.90;;;;;;5090716;28;19912;-65
2021/07/02 10:54:18;;;;;;;;;;;27.50;99.90;;;;;;5089885;28;19971;-65
2021/07/02 10:56:53;;;;;;;;;;;27.40;99.90;;;;;;5092300;28;19908;-71
2021/07/02 10:59:19;;;;;;;;;;;27.30;99.90;;;;;;5085949;28;19917;-71
2021/07/02 11:02:06;;;;;;;;;;;27.20;99.90;;;;;;5091841;28;19969;-71
2021/07/02 11:04:35;;;;;;;;;;;27.00;99.90;;;;;;5091188;28;19965;-71
2021/07/02 11:07:01;;;;;;;;;;;26.90;99.90;;;;;;5088627;28;19918;-71
2021/07/02 11:09:45;;;;;;;;;;;26.70;99.90;;;;;;5093475;28;19919;-70
2021/07/02 11:12:11;;;;;;;;;;;26.70;99.90;;;;;;5092722;28;20285;-69
2021/07/02 11:14:52;;;;;;;;;;;26.70;99.90;;;;;;5093785;28;19927;-71
2021/07/02 11:17:18;;;;;;;;;;;26.80;99.90;;;;;;5087592;28;20345;-72
2021/07/02 11:19:44;;;;;;;;;;;26.80;99.90;;;;;;5090462;28;19916;-71
2021/07/02 11:22:28;;;;;;;;;;;27.00;99.90;;;;;;5085402;28;21510;-72
2021/07/02 11:25:03;;;;;;;;;;;26.90;99.90;;;;;;5090380;28;20373;-70
2021/07/02 11:27:41;;;;;;;;;;;26.80;99.90;;;;;;5085783;28;19986;-70
2021/07/02 11:32:54;;;;;;;;;;;26.70;99.90;;;;;;5079374;28;19913;-69
2021/07/02 11:35:22;;;;;;;;;;;26.70;99.90;;;;;;5091011;28;20011;-70
2021/07/02 11:38:11;;;;;;;;;;;26.90;99.90;;;;;;5082911;28;20265;-70
2021/07/02 11:40:40;;;;;;;;;;;26.80;99.90;;;;;;5081350;28;20467;-70
2021/07/02 11:43:08;;;;;;;;;;;26.80;99.90;;;;;;5082999;28;19916;-69
2021/07/02 11:45:37;;;;;;;;;;;26.80;99.90;;;;;;5085754;28;19918;-70
2021/07/02 11:48:04;;;;;;;;;;;26.80;99.90;;;;;;5084014;28;19916;-71
2021/07/02 11:50:42;;;;;;;;;;;26.60;99.90;;;;;;5084877;28;20234;-70
2021/07/02 11:53:26;;;;;;;;;;;26.50;99.90;;;;;;5087416;28;20349;-73
2021/07/02 11:55:58;;;;;;;;;;;26.50;99.90;;;;;;5085559;28;19955;-70
2021/07/02 11:58:26;;;;;;;;;;;26.70;99.90;;;;;;5080006;28;20017;-70
2021/07/02 12:00:52;;;;;;;;;;;26.80;99.90;;;;;;5078891;28;20023;-68
2021/07/02 12:03:18;;;;;;;;;;;26.70;99.90;;;;;;5076703;28;20349;-70
2021/07/02 12:05:54;;;;;;;;;;;26.60;99.90;;;;;;5080741;28;19999;-70
2021/07/02 12:08:23;;;;;;;;;;;26.60;99.90;;;;;;5081822;28;19920;-70
2021/07/02 12:10:56;;;;;;;;;;;26.40;99.90;;;;;;5083540;28;20012;-71
2021/07/02 12:13:24;;;;;;;;;;;26.50;99.90;;;;;;5078382;28;20321;-71
2021/07/02 12:15:59;;;;;;;;;;;26.50;99.90;;;;;;5080239;28;19926;-70
2021/07/02 12:18:25;;;;;;;;;;;26.80;99.90;;;;;;5080127;28;20014;-69
2021/07/02 12:21:17;;;;;;;;;;;27.10;99.90;;;;;;5080860;28;20006;-68
2021/07/02 12:23:43;;;;;;;;;;;27.10;99.90;;;;;;5080495;28;19923;-70
2021/07/02 12:26:10;;;;;;;;;;;27.10;99.90;;;;;;5087314;28;19912;-70
2021/07/02 12:28:57;;;;;;;;;;;27.10;99.90;;;;;;5082398;28;19912;-70
2021/07/02 12:31:23;;;;;;;;;;;27.20;99.90;;;;;;5077301;28;20578;-71
2021/07/02 12:33:49;;;;;;;;;;;27.10;99.90;;;;;;5086399;28;19913;-72
2021/07/02 12:36:14;;;;;;;;;;;27.00;99.90;;;;;;5082566;28;20344;-72
2021/07/02 12:38:59;;;;;;;;;;;27.00;99.90;;;;;;5077078;28;19920;-71
2021/07/02 12:41:24;;;;;;;;;;;26.90;99.90;;;;;;5080185;28;19927;-71
2021/07/02 12:43:50;;;;;;;;;;;26.90;99.90;;;;;;5083528;28;19916;-70
2021/07/02 12:46:16;;;;;;;;;;;26.90;99.90;;;;;;5077295;28;19977;-70
2021/07/02 12:48:42;;;;;;;;;;;27.00;99.90;;;;;;5078869;28;19919;-70
2021/07/02 12:51:08;;;;;;;;;;;26.90;99.90;;;;;;5084697;28;20400;-71
2021/07/02 12:56:18;;;;;;;;;;;27.10;99.90;;;;;;5076007;28;19920;-70
2021/07/02 12:58:44;;;;;;;;;;;27.10;99.90;;;;;;5080500;28;19912;-73
2021/07/02 13:01:10;;;;;;;;;;;27.20;99.90;;;;;;5079365;28;19916;-70
2021/07/02 13:03:35;;;;;;;;;;;27.20;99.90;;;;;;5081068;28;20382;-70
2021/07/02 13:06:13;;;;;;;;;;;27.20;99.90;;;;;;5080964;28;19912;-71
2021/07/02 13:08:40;;;;;;;;;;;27.30;99.90;;;;;;5082788;28;19912;-71
2021/07/02 13:11:21;;;;;;;;;;;27.20;99.90;;;;;;5082915;28;20420;-70
2021/07/02 13:13:47;;;;;;;;;;;27.20;99.90;;;;;;5081289;28;19934;-74
2021/07/02 13:16:12;;;;;;;;;;;27.20;99.90;;;;;;5080325;28;20421;-70
2021/07/02 13:18:39;;;;;;;;;;;27.20;99.90;;;;;;5085142;28;19916;-73
2021/07/02 13:21:06;;;;;;;;;;;27.40;99.90;;;;;;5098914;28;20051;-71
2021/07/02 13:23:33;;;;;;;;;;;27.60;99.90;;;;;;5084932;28;19912;-73
2021/07/02 13:26:02;;;;;;;;;;;27.60;99.90;;;;;;5095773;28;20049;-72
2021/07/02 13:28:28;;;;;;;;;;;27.70;99.90;;;;;;5085340;28;20278;-70
2021/07/02 13:30:54;;;;;;;;;;;27.60;99.90;;;;;;5093644;28;19907;-68
2021/07/02 13:33:21;;;;;;;;;;;27.60;99.90;;;;;;5112179;28;19907;-69
2021/07/02 13:35:46;;;;;;;;;;;27.50;99.90;;;;;;5085560;28;19962;-69
2021/07/02 13:38:18;;;;;;;;;;;27.60;99.90;;;;;;5071658;28;19920;-70
2021/07/02 13:40:46;;;;;;;;;;;27.70;99.90;;;;;;5071137;28;19913;-69
2021/07/02 13:43:16;;;;;;;;;;;27.70;99.90;;;;;;5075372;28;19908;-70
2021/07/02 13:45:56;;;;;;;;;;;27.70;99.90;;;;;;5090187;28;19912;-73
2021/07/02 13:48:22;;;;;;;;;;;27.80;99.90;;;;;;5070184;28;19908;-70
2021/07/02 13:50:48;;;;;;;;;;;27.70;99.90;;;;;;5086039;28;19912;-70
2021/07/02 13:53:17;;;;;;;;;;;27.60;99.90;;;;;;5090025;28;19908;-73
2021/07/02 13:55:44;;;;;;;;;;;27.70;99.90;;;;;;5086764;28;19919;-73
2021/07/02 13:58:09;;;;;;;;;;;27.80;99.90;;;;;;5089063;28;19932;-72
2021/07/02 14:00:36;;;;;;;;;;;27.70;99.90;;;;;;5086834;28;19928;-68
2021/07/02 14:03:02;;;;;;;;;;;27.70;99.90;;;;;;5081943;28;19999;-71
2021/07/02 14:05:28;;;;;;;;;;;27.80;99.90;;;;;;5090282;28;19952;-72
2021/07/02 14:07:53;;;;;;;;;;;27.80;99.90;;;;;;5073288;28;20333;-69
2021/07/02 14:10:19;;;;;;;;;;;28.10;99.90;;;;;;5094550;28;20289;-70
2021/07/02 14:12:44;;;;;;;;;;;28.20;99.90;;;;;;5083558;28;19923;-72
2021/07/02 14:15:10;;;;;;;;;;;28.00;99.90;;;;;;5090814;28;19908;-68
2021/07/02 14:17:36;;;;;;;;;;;28.00;99.90;;;;;;5091224;28;20382;-72
2021/07/02 14:20:02;;;;;;;;;;;28.10;99.90;;;;;;5091025;28;19912;-70
2021/07/02 14:22:27;;;;;;;;;;;28.00;99.90;;;;;;5082538;28;19927;-70
2021/07/02 14:24:53;;;;;;;;;;;28.10;99.90;;;;;;5076946;28;19913;-68
2021/07/02 14:27:18;;;;;;;;;;;28.10;99.90;;;;;;5081985;28;19991;-70